createdAt,value
2018-07-31T00:00:30.401Z,71.10
2018-07-31T00:03:02.310Z,71.30
2018-07-31T00:05:34.045Z,71.50
2018-07-31T00:08:06.134Z,71.50
2018-07-31T00:10:38.016Z,71.40
2018-07-31T00:13:09.814Z,71.30
2018-07-31T00:15:41.593Z,72.40
2018-07-31T00:18:13.230Z,71.40
2018-07-31T00:20:45.379Z,71.30
2018-07-31T00:23:18.172Z,70.90
2018-07-31T00:25:49.965Z,70.50
2018-07-31T00:28:21.802Z,70.70
2018-07-31T00:30:53.653Z,70.50
2018-07-31T00:33:25.312Z,70.60
2018-07-31T00:35:57.186Z,71.00
2018-07-31T00:38:29.038Z,71.10
2018-07-31T00:41:00.718Z,71.00
2018-07-31T00:43:32.513Z,71.00
2018-07-31T00:46:04.201Z,71.00
2018-07-31T00:48:35.892Z,71.10
2018-07-31T00:51:07.626Z,71.40
2018-07-31T00:53:39.333Z,71.60
2018-07-31T00:56:11.163Z,71.90
2018-07-31T00:58:42.919Z,72.60
2018-07-31T01:01:14.769Z,72.40
2018-07-31T01:03:46.438Z,72.40
2018-07-31T01:06:22.017Z,72.40
2018-07-31T01:08:53.888Z,72.50
2018-07-31T01:11:25.751Z,72.90
2018-07-31T01:16:28.410Z,73.40
2018-07-31T01:19:00.250Z,73.50
2018-07-31T01:21:31.929Z,73.60
2018-07-31T01:24:03.690Z,73.60
2018-07-31T01:26:35.421Z,73.60
2018-07-31T01:29:07.333Z,73.60
2018-07-31T01:31:39.064Z,73.60
2018-07-31T01:34:10.797Z,73.60
2018-07-31T01:36:42.429Z,73.80
2018-07-31T01:39:14.208Z,73.90
2018-07-31T01:41:46.031Z,73.80
2018-07-31T01:44:17.688Z,74.00
2018-07-31T01:46:49.509Z,74.20
2018-07-31T01:49:21.412Z,74.60
2018-07-31T01:51:53.041Z,74.40
2018-07-31T01:54:24.669Z,75.20
2018-07-31T01:56:56.396Z,74.60
2018-07-31T01:59:28.105Z,74.50
2018-07-31T02:01:59.874Z,74.30
2018-07-31T02:04:31.504Z,74.40
2018-07-31T02:07:03.300Z,74.50
2018-07-31T02:09:35.065Z,74.80
2018-07-31T02:12:06.836Z,74.80
2018-07-31T02:14:38.530Z,75.00
2018-07-31T02:17:10.447Z,75.20
2018-07-31T02:19:42.153Z,75.40
2018-07-31T02:22:13.836Z,75.50
2018-07-31T02:24:45.668Z,75.60
2018-07-31T02:27:17.353Z,75.50
2018-07-31T02:29:53.923Z,75.60
2018-07-31T02:32:25.797Z,75.60
2018-07-31T02:34:57.569Z,75.80
2018-07-31T02:37:29.535Z,75.90
2018-07-31T02:40:01.222Z,75.90
2018-07-31T02:42:33.003Z,76.00
2018-07-31T02:45:05.261Z,76.00
2018-07-31T02:47:37.098Z,76.00
2018-07-31T02:50:09.485Z,76.00
2018-07-31T02:52:41.593Z,76.20
2018-07-31T02:55:13.429Z,76.20
2018-07-31T02:57:45.345Z,76.00
2018-07-31T03:00:16.968Z,75.90
2018-07-31T03:02:48.637Z,75.40
2018-07-31T03:05:20.457Z,75.30
2018-07-31T03:07:52.366Z,75.40
2018-07-31T03:10:24.318Z,75.50
2018-07-31T03:12:56.285Z,75.60
2018-07-31T03:15:28.067Z,75.60
2018-07-31T03:17:59.793Z,75.60
2018-07-31T03:20:31.562Z,76.50
2018-07-31T03:23:03.401Z,75.90
2018-07-31T03:25:35.307Z,76.10
2018-07-31T03:28:07.158Z,76.00
2018-07-31T03:30:38.800Z,76.10
2018-07-31T03:33:10.451Z,76.10
2018-07-31T03:35:42.204Z,76.20
2018-07-31T03:38:13.947Z,76.20
2018-07-31T03:40:45.861Z,76.10
2018-07-31T03:43:17.505Z,75.90
2018-07-31T03:45:49.302Z,75.90
2018-07-31T03:48:21.011Z,76.00
2018-07-31T03:50:52.732Z,76.10
2018-07-31T03:53:24.415Z,76.30
2018-07-31T03:55:56.209Z,76.50
2018-07-31T03:58:27.970Z,76.70
2018-07-31T04:00:59.721Z,76.70
2018-07-31T04:03:31.357Z,77.10
2018-07-31T04:06:03.111Z,76.90
2018-07-31T04:08:34.894Z,76.90
2018-07-31T04:11:06.738Z,76.80
2018-07-31T04:13:38.689Z,76.80
2018-07-31T04:16:10.490Z,76.70
2018-07-31T04:18:42.200Z,76.70
2018-07-31T04:21:13.878Z,76.60
2018-07-31T04:23:45.709Z,76.80
2018-07-31T04:26:17.564Z,76.80
2018-07-31T04:28:49.277Z,76.80
2018-07-31T04:31:21.091Z,76.90
2018-07-31T04:33:53.047Z,77.00
2018-07-31T04:36:24.716Z,77.10
2018-07-31T04:38:56.390Z,77.20
2018-07-31T04:41:28.177Z,77.20
2018-07-31T04:43:59.931Z,77.20
2018-07-31T04:46:31.670Z,77.30
2018-07-31T04:49:03.657Z,77.50
2018-07-31T04:51:35.403Z,77.50
2018-07-31T04:54:07.249Z,77.60
2018-07-31T04:56:39.093Z,77.60
2018-07-31T04:59:10.949Z,77.80
2018-07-31T05:01:42.625Z,78.10
2018-07-31T05:04:14.392Z,77.90
2018-07-31T05:06:46.236Z,77.70
2018-07-31T05:09:18.095Z,78.20
2018-07-31T05:11:49.897Z,77.10
2018-07-31T05:14:21.533Z,76.50
2018-07-31T05:16:53.374Z,77.10
2018-07-31T05:19:25.080Z,76.30
2018-07-31T05:21:56.786Z,75.90
2018-07-31T05:24:28.537Z,75.70
2018-07-31T05:26:59.916Z,75.40
2018-07-31T05:29:31.646Z,75.50
2018-07-31T05:32:03.113Z,75.60
2018-07-31T05:34:34.517Z,75.30
2018-07-31T05:37:05.972Z,74.90
2018-07-31T05:39:37.866Z,74.50
2018-07-31T05:42:09.676Z,74.30
2018-07-31T05:44:41.308Z,74.20
2018-07-31T05:47:13.048Z,73.90
2018-07-31T05:49:44.796Z,73.50
2018-07-31T05:52:16.389Z,73.20
2018-07-31T05:54:48.042Z,73.00
2018-07-31T05:57:19.865Z,72.60
2018-07-31T05:59:51.846Z,72.50
2018-07-31T06:02:23.507Z,72.30
2018-07-31T06:04:55.243Z,72.30
2018-07-31T06:07:27.215Z,71.70
2018-07-31T06:09:58.894Z,70.70
2018-07-31T06:12:30.763Z,69.60
2018-07-31T06:15:02.409Z,69.20
2018-07-31T06:17:34.180Z,68.80
2018-07-31T06:20:11.046Z,68.60
2018-07-31T06:22:42.884Z,67.80
2018-07-31T06:25:15.285Z,67.30
2018-07-31T06:27:47.218Z,66.30
2018-07-31T06:30:18.906Z,66.50
2018-07-31T06:32:50.840Z,66.00
2018-07-31T06:35:22.697Z,65.50
2018-07-31T06:37:54.511Z,64.40
2018-07-31T06:40:26.291Z,63.40
2018-07-31T06:42:58.087Z,63.60
2018-07-31T06:45:29.749Z,62.80
2018-07-31T06:48:01.426Z,62.10
2018-07-31T06:50:33.590Z,61.30
2018-07-31T06:53:05.428Z,61.40
2018-07-31T06:55:37.236Z,61.00
2018-07-31T06:58:09.085Z,61.30
2018-07-31T07:00:40.955Z,61.40
2018-07-31T07:03:12.718Z,60.00
2018-07-31T07:05:44.425Z,60.00
2018-07-31T07:08:16.384Z,59.40
2018-07-31T07:10:48.185Z,59.60
2018-07-31T07:13:19.934Z,59.00
2018-07-31T07:15:51.689Z,58.90
2018-07-31T07:18:23.438Z,58.30
2018-07-31T07:20:55.249Z,58.00
2018-07-31T07:23:27.151Z,57.50
2018-07-31T07:25:59.000Z,56.90
2018-07-31T07:28:30.692Z,56.80
2018-07-31T07:31:02.545Z,55.50
2018-07-31T07:33:34.473Z,54.30
2018-07-31T07:36:06.449Z,54.20
2018-07-31T07:38:38.345Z,54.20
2018-07-31T07:41:10.205Z,53.30
2018-07-31T07:43:41.950Z,53.70
2018-07-31T07:46:13.897Z,53.70
2018-07-31T07:48:45.668Z,54.30
2018-07-31T07:51:17.445Z,53.70
2018-07-31T07:53:49.302Z,52.90
2018-07-31T07:56:21.146Z,53.10
2018-07-31T07:58:53.078Z,52.60
2018-07-31T08:01:25.137Z,51.70
2018-07-31T08:03:57.080Z,51.40
2018-07-31T08:06:28.697Z,50.50
2018-07-31T08:09:00.370Z,50.50
2018-07-31T08:11:32.150Z,50.70
2018-07-31T08:14:04.165Z,50.90
2018-07-31T08:16:35.975Z,50.90
2018-07-31T08:19:07.885Z,50.00
2018-07-31T08:21:40.585Z,49.40
2018-07-31T08:24:12.427Z,49.50
2018-07-31T08:26:44.191Z,48.90
2018-07-31T08:29:16.053Z,49.80
2018-07-31T08:31:47.728Z,48.60
2018-07-31T08:34:19.480Z,47.10
2018-07-31T08:36:51.328Z,46.60
2018-07-31T08:39:23.108Z,45.60
2018-07-31T08:41:54.973Z,45.60
2018-07-31T08:44:26.800Z,45.80
2018-07-31T08:46:58.582Z,44.60
2018-07-31T08:49:30.253Z,42.50
2018-07-31T08:52:02.084Z,42.40
2018-07-31T08:54:33.774Z,41.60
2018-07-31T08:57:05.518Z,41.20
2018-07-31T08:59:37.257Z,41.20
2018-07-31T09:02:09.273Z,40.40
2018-07-31T09:04:41.039Z,40.60
2018-07-31T09:07:12.813Z,40.40
2018-07-31T09:09:44.704Z,40.20
2018-07-31T09:12:16.560Z,39.00
2018-07-31T09:14:48.229Z,39.00
2018-07-31T09:17:20.085Z,38.70
2018-07-31T09:19:51.942Z,38.80
2018-07-31T09:22:23.732Z,38.50
2018-07-31T09:24:55.525Z,38.30
2018-07-31T09:27:27.422Z,37.70
2018-07-31T09:29:59.285Z,38.10
2018-07-31T09:32:35.907Z,37.70
2018-07-31T09:35:07.924Z,36.70
2018-07-31T09:37:39.604Z,36.30
2018-07-31T09:40:11.504Z,36.10
2018-07-31T09:42:43.236Z,36.10
2018-07-31T09:45:14.881Z,36.00
2018-07-31T09:47:46.724Z,35.80
2018-07-31T09:50:18.525Z,36.00
2018-07-31T09:52:50.337Z,36.30
2018-07-31T09:55:22.252Z,35.90
2018-07-31T09:57:53.877Z,35.10
2018-07-31T10:00:30.453Z,33.50
2018-07-31T10:03:02.185Z,33.90
2018-07-31T10:05:33.777Z,34.20
2018-07-31T10:08:05.674Z,34.10
2018-07-31T10:10:37.465Z,34.70
2018-07-31T10:13:09.276Z,32.20
2018-07-31T10:15:40.896Z,31.90
2018-07-31T10:18:12.804Z,32.80
2018-07-31T10:20:44.600Z,33.30
2018-07-31T10:23:16.463Z,33.40
2018-07-31T10:25:48.273Z,32.50
2018-07-31T10:28:20.008Z,31.80
2018-07-31T10:30:52.020Z,32.10
2018-07-31T10:33:23.909Z,32.20
2018-07-31T10:35:55.809Z,32.00
2018-07-31T10:38:27.453Z,32.30
2018-07-31T10:40:59.192Z,31.70
2018-07-31T10:43:31.008Z,30.10
2018-07-31T10:46:02.847Z,30.60
2018-07-31T10:48:34.562Z,31.00
2018-07-31T10:51:06.298Z,30.70
2018-07-31T10:53:38.106Z,30.00
2018-07-31T10:56:10.041Z,29.30
2018-07-31T10:58:41.885Z,29.50
2018-07-31T11:01:13.390Z,30.00
2018-07-31T11:03:45.236Z,30.30
2018-07-31T11:06:17.073Z,29.40
2018-07-31T11:08:48.869Z,29.10
2018-07-31T11:11:20.623Z,29.60
2018-07-31T11:13:52.289Z,29.60
2018-07-31T11:16:24.146Z,29.70
2018-07-31T11:18:55.985Z,29.70
2018-07-31T11:21:27.773Z,29.60
2018-07-31T11:23:59.426Z,29.90
2018-07-31T11:26:31.359Z,29.50
2018-07-31T11:29:03.123Z,29.80
2018-07-31T11:31:34.788Z,30.20
2018-07-31T11:34:06.901Z,30.00
2018-07-31T11:36:38.613Z,30.00
2018-07-31T11:39:12.489Z,29.60
2018-07-31T11:41:44.184Z,29.40
2018-07-31T11:44:16.229Z,28.70
2018-07-31T11:46:47.988Z,28.60
2018-07-31T11:49:19.786Z,28.60
2018-07-31T11:51:51.531Z,28.70
2018-07-31T11:54:23.258Z,28.10
2018-07-31T11:56:54.846Z,28.20
2018-07-31T11:59:26.686Z,28.50
2018-07-31T12:01:58.370Z,28.70
2018-07-31T12:04:30.194Z,28.70
2018-07-31T12:07:02.061Z,27.90
2018-07-31T12:09:33.741Z,28.30
2018-07-31T12:12:05.577Z,28.40
2018-07-31T12:14:37.537Z,28.30
2018-07-31T12:17:09.256Z,27.70
2018-07-31T12:22:12.049Z,27.50
2018-07-31T12:24:43.862Z,27.60
2018-07-31T12:27:15.771Z,27.40
2018-07-31T12:29:47.496Z,27.80
2018-07-31T12:32:19.289Z,27.90
2018-07-31T12:34:50.998Z,27.70
2018-07-31T12:37:22.860Z,27.60
2018-07-31T12:39:54.768Z,27.70
2018-07-31T12:42:26.404Z,26.90
2018-07-31T12:44:58.276Z,27.50
2018-07-31T12:47:30.017Z,27.10
2018-07-31T12:50:01.995Z,27.30
2018-07-31T12:52:33.628Z,27.40
2018-07-31T12:55:05.481Z,27.20
2018-07-31T12:57:37.361Z,27.00
2018-07-31T13:00:09.304Z,27.00
2018-07-31T13:02:41.102Z,26.90
2018-07-31T13:05:12.954Z,26.40
2018-07-31T13:07:44.679Z,26.50
2018-07-31T13:10:16.701Z,26.90
2018-07-31T13:12:48.330Z,27.10
2018-07-31T13:15:20.076Z,27.90
2018-07-31T13:17:51.924Z,27.90
2018-07-31T13:20:23.834Z,27.40
2018-07-31T13:22:55.592Z,27.40
2018-07-31T13:25:27.404Z,27.90
2018-07-31T13:27:59.261Z,27.40
2018-07-31T13:30:31.234Z,26.90
2018-07-31T13:33:02.993Z,26.70
2018-07-31T13:35:34.766Z,27.20
2018-07-31T13:38:06.612Z,26.50
2018-07-31T13:40:38.273Z,26.60
2018-07-31T13:43:10.152Z,26.80
2018-07-31T13:45:41.988Z,26.70
2018-07-31T13:48:14.391Z,27.00
2018-07-31T13:50:46.132Z,26.30
2018-07-31T13:53:17.818Z,26.40
2018-07-31T13:55:49.643Z,26.30
2018-07-31T13:58:21.297Z,26.10
2018-07-31T14:00:52.968Z,26.10
2018-07-31T14:03:24.717Z,26.00
2018-07-31T14:05:56.634Z,26.30
2018-07-31T14:08:28.450Z,26.60
2018-07-31T14:11:00.297Z,26.50
2018-07-31T14:13:32.204Z,26.50
2018-07-31T14:16:03.946Z,26.70
2018-07-31T14:18:35.693Z,27.10
2018-07-31T14:21:07.520Z,27.10
2018-07-31T14:23:39.424Z,27.20
2018-07-31T14:26:11.109Z,27.20
2018-07-31T14:28:42.853Z,26.40
2018-07-31T14:31:14.619Z,26.50
2018-07-31T14:33:46.397Z,26.50
2018-07-31T14:36:18.394Z,26.60
2018-07-31T14:38:50.459Z,26.50
2018-07-31T14:41:22.130Z,26.50
2018-07-31T14:43:54.005Z,26.50
2018-07-31T14:46:25.934Z,26.60
2018-07-31T14:48:57.614Z,27.00
2018-07-31T14:51:29.375Z,27.40
2018-07-31T14:54:01.278Z,27.30
2018-07-31T14:56:33.070Z,27.50
2018-07-31T14:59:04.889Z,27.80
2018-07-31T15:01:36.630Z,28.60
2018-07-31T15:04:08.493Z,28.90
2018-07-31T15:06:40.186Z,29.70
2018-07-31T15:09:12.130Z,29.00
2018-07-31T15:11:44.032Z,28.90
2018-07-31T15:14:15.793Z,28.70
2018-07-31T15:16:47.570Z,28.30
2018-07-31T15:19:19.522Z,28.00
2018-07-31T15:21:51.332Z,28.10
2018-07-31T15:24:23.094Z,28.20
2018-07-31T15:26:54.736Z,27.90
2018-07-31T15:29:26.453Z,27.90
2018-07-31T15:31:58.368Z,27.90
2018-07-31T15:34:29.989Z,27.70
2018-07-31T15:37:01.747Z,27.80
2018-07-31T15:39:33.406Z,27.70
2018-07-31T15:42:05.357Z,27.80
2018-07-31T15:44:37.012Z,27.60
2018-07-31T15:47:08.877Z,27.50
2018-07-31T15:49:41.050Z,27.40
2018-07-31T15:52:12.832Z,27.40
2018-07-31T15:54:44.577Z,27.10
2018-07-31T15:57:16.364Z,26.80
2018-07-31T15:59:48.292Z,27.40
2018-07-31T16:02:19.987Z,26.90
2018-07-31T16:04:51.726Z,27.30
2018-07-31T16:07:23.610Z,27.30
2018-07-31T16:09:55.219Z,27.80
2018-07-31T16:12:27.006Z,27.20
2018-07-31T16:14:58.948Z,26.70
2018-07-31T16:17:30.657Z,26.90
2018-07-31T16:20:02.274Z,26.90
2018-07-31T16:22:34.136Z,27.30
2018-07-31T16:25:05.948Z,27.30
2018-07-31T16:27:37.769Z,27.30
2018-07-31T16:30:09.794Z,27.40
2018-07-31T16:32:41.750Z,27.40
2018-07-31T16:35:13.717Z,27.70
2018-07-31T16:37:45.600Z,28.00
2018-07-31T16:40:17.365Z,27.40
2018-07-31T16:42:49.152Z,27.60
2018-07-31T16:45:20.896Z,27.80
2018-07-31T16:47:52.727Z,28.30
2018-07-31T16:50:24.527Z,28.10
2018-07-31T16:52:56.266Z,28.30
2018-07-31T16:55:28.153Z,28.20
2018-07-31T16:57:59.872Z,28.10
2018-07-31T17:00:31.560Z,28.80
2018-07-31T17:03:03.274Z,28.40
2018-07-31T17:05:35.046Z,28.60
2018-07-31T17:08:07.947Z,28.80
2018-07-31T17:10:40.506Z,28.90
2018-07-31T17:13:12.464Z,29.10
2018-07-31T17:15:44.256Z,29.00
2018-07-31T17:18:16.619Z,29.10
2018-07-31T17:20:48.373Z,29.40
2018-07-31T17:23:20.108Z,29.70
2018-07-31T17:25:52.072Z,30.10
2018-07-31T17:28:23.937Z,30.60
2018-07-31T17:30:55.603Z,30.80
2018-07-31T17:33:27.389Z,31.30
2018-07-31T17:35:59.262Z,31.40
2018-07-31T17:38:30.992Z,31.70
2018-07-31T17:41:02.656Z,31.80
2018-07-31T17:43:34.540Z,32.40
2018-07-31T17:46:06.296Z,33.10
2018-07-31T17:48:38.207Z,33.80
2018-07-31T17:51:10.021Z,34.60
2018-07-31T17:53:41.753Z,35.10
2018-07-31T17:56:13.409Z,36.20
2018-07-31T17:58:45.249Z,37.40
2018-07-31T18:01:17.110Z,38.80
2018-07-31T18:03:48.790Z,39.60
2018-07-31T18:06:20.567Z,39.60
2018-07-31T18:08:52.312Z,38.80
2018-07-31T18:11:24.169Z,39.20
2018-07-31T18:13:55.870Z,39.00
2018-07-31T18:16:27.482Z,38.30
2018-07-31T18:18:59.370Z,37.60
2018-07-31T18:21:31.333Z,37.70
2018-07-31T18:24:03.080Z,37.70
2018-07-31T18:26:35.014Z,38.90
2018-07-31T18:29:07.089Z,38.30
2018-07-31T18:31:38.740Z,39.00
2018-07-31T18:34:10.406Z,40.70
2018-07-31T18:36:42.192Z,42.50
2018-07-31T18:39:14.419Z,42.80
2018-07-31T18:41:46.083Z,42.20
2018-07-31T18:44:17.851Z,41.90
2018-07-31T18:46:49.692Z,41.20
2018-07-31T18:49:21.276Z,40.70
2018-07-31T18:51:53.113Z,42.00
2018-07-31T18:54:24.890Z,43.00
2018-07-31T18:56:56.650Z,44.10
2018-07-31T18:59:28.482Z,43.80
2018-07-31T19:02:00.365Z,43.50
2018-07-31T19:04:32.022Z,44.40
2018-07-31T19:07:04.708Z,44.80
2018-07-31T19:09:36.473Z,45.50
2018-07-31T19:12:08.201Z,45.40
2018-07-31T19:14:39.992Z,45.90
2018-07-31T19:17:11.541Z,45.70
2018-07-31T19:19:43.144Z,43.60
2018-07-31T19:22:14.857Z,42.20
2018-07-31T19:24:46.717Z,40.90
2018-07-31T19:27:18.555Z,40.50
2018-07-31T19:29:50.409Z,40.50
2018-07-31T19:32:22.178Z,41.40
2018-07-31T19:34:53.850Z,41.80
2018-07-31T19:37:25.688Z,41.80
2018-07-31T19:39:57.463Z,41.20
2018-07-31T19:42:29.129Z,41.60
2018-07-31T19:45:00.960Z,41.20
2018-07-31T19:47:32.968Z,41.20
2018-07-31T19:50:04.837Z,41.40
2018-07-31T19:52:36.444Z,42.40
2018-07-31T19:55:08.206Z,43.50
2018-07-31T19:57:39.911Z,44.30
2018-07-31T20:00:11.755Z,44.10
2018-07-31T20:02:43.530Z,44.50
2018-07-31T20:05:15.258Z,45.10
2018-07-31T20:07:47.002Z,43.80
2018-07-31T20:10:18.721Z,44.00
2018-07-31T20:12:50.549Z,45.20
2018-07-31T20:15:22.502Z,45.60
2018-07-31T20:17:54.391Z,47.10
2018-07-31T20:20:26.150Z,47.60
2018-07-31T20:22:57.853Z,48.20
2018-07-31T20:25:29.768Z,48.70
2018-07-31T20:28:01.496Z,48.60
2018-07-31T20:30:33.255Z,49.50
2018-07-31T20:35:36.175Z,49.30
2018-07-31T20:38:07.897Z,49.50
2018-07-31T20:40:39.562Z,49.50
2018-07-31T20:43:11.310Z,49.80
2018-07-31T20:45:43.081Z,50.40
2018-07-31T20:48:14.882Z,50.90
2018-07-31T20:50:46.724Z,51.10
2018-07-31T20:53:18.555Z,51.40
2018-07-31T20:55:50.241Z,52.10
2018-07-31T20:58:22.101Z,52.30
2018-07-31T21:00:53.957Z,52.50
2018-07-31T21:03:25.793Z,52.90
2018-07-31T21:05:57.482Z,53.00
2018-07-31T21:08:29.240Z,53.80
2018-07-31T21:11:01.121Z,54.20
2018-07-31T21:13:32.736Z,55.00
2018-07-31T21:16:04.585Z,55.10
2018-07-31T21:18:36.449Z,55.00
2018-07-31T21:21:08.623Z,55.10
2018-07-31T21:23:40.292Z,55.10
2018-07-31T21:26:11.962Z,54.80
2018-07-31T21:28:43.743Z,54.10
2018-07-31T21:31:15.372Z,54.00
2018-07-31T21:33:47.130Z,54.50
2018-07-31T21:36:18.869Z,54.80
2018-07-31T21:38:50.659Z,54.90
2018-07-31T21:41:22.441Z,55.00
2018-07-31T21:43:54.242Z,55.20
2018-07-31T21:46:26.053Z,55.30
2018-07-31T21:48:58.072Z,55.40
2018-07-31T21:51:29.879Z,55.40
2018-07-31T21:54:01.567Z,55.40
2018-07-31T21:56:33.472Z,55.50
2018-07-31T21:59:05.361Z,54.80
2018-07-31T22:01:37.150Z,54.10
2018-07-31T22:04:08.912Z,53.70
2018-07-31T22:06:40.832Z,53.40
2018-07-31T22:09:12.601Z,53.40
2018-07-31T22:11:44.433Z,52.90
2018-07-31T22:14:16.183Z,52.50
2018-07-31T22:16:48.066Z,52.00
2018-07-31T22:19:19.697Z,51.90
2018-07-31T22:21:51.470Z,52.60
2018-07-31T22:24:23.296Z,53.50
2018-07-31T22:26:55.000Z,54.30
2018-07-31T22:29:26.740Z,55.40
2018-07-31T22:31:58.529Z,56.50
2018-07-31T22:34:30.109Z,57.40
2018-07-31T22:37:01.817Z,58.30
2018-07-31T22:39:33.661Z,58.80
2018-07-31T22:42:05.487Z,59.50
2018-07-31T22:44:37.202Z,59.90
2018-07-31T22:47:08.982Z,60.50
2018-07-31T22:49:40.706Z,60.90
2018-07-31T22:52:12.450Z,61.30
2018-07-31T22:54:44.304Z,61.80
2018-07-31T22:57:15.986Z,62.20
2018-07-31T22:59:47.673Z,62.30
2018-07-31T23:02:19.408Z,62.30
2018-07-31T23:04:51.061Z,62.30
2018-07-31T23:07:22.858Z,62.60
2018-07-31T23:09:58.266Z,62.50
2018-07-31T23:12:30.235Z,62.50
2018-07-31T23:15:02.805Z,63.00
2018-07-31T23:17:34.553Z,63.30
2018-07-31T23:20:06.371Z,63.90
2018-07-31T23:22:44.873Z,64.30
2018-07-31T23:25:16.617Z,63.60
2018-07-31T23:27:48.578Z,63.40
2018-07-31T23:30:20.503Z,63.80
2018-07-31T23:32:52.303Z,64.20
2018-07-31T23:35:23.945Z,64.40
2018-07-31T23:37:55.775Z,64.70
2018-07-31T23:40:27.522Z,64.80
2018-07-31T23:42:59.298Z,64.80
2018-07-31T23:45:30.978Z,64.90
2018-07-31T23:48:02.650Z,65.30
2018-07-31T23:50:34.414Z,65.40
2018-07-31T23:53:06.156Z,65.50
2018-07-31T23:55:37.941Z,65.60
2018-07-31T23:58:09.662Z,65.30
